Terminal Aerodrome Forecast
Issued by NWS Pueblo, CO

Home | Current Version | Previous Version | Text Only | Print | Product List | Glossary On
Versions: 1 2 3 4 5 6 7 8 9 10 11 12 13 14 15 16 17 18 19 20 21 22 23 24 25 26 27 28 29 30 31 32
047
FTUS45 KPUB 231131
TAFALS
TAF
KALS 231131Z 2312/2412 VRB06KT P6SM SCT200
     FM232000 33008KT P6SM VCTS SCT090CB BKN150
     FM232200 30015G25KT P6SM VCTS SCT090CB BKN150
     FM240200 30008KT P6SM SCT120 BKN200
     FM240500 VRB06KT P6SM SCT140 SCT200=

USA.gov is the U.S. government's official web portal to all federal, state and local government web resources and services.